Portada
METAR-TAF:

METAR-TAF

Aeroports :

Ghriss, Algèria

latitud: 35-12N, longitud: 000-08E, altitud: 514 m

Observació

L'informe es va fer fa 35 minuts, a les 12:00 UTC
Vent 21 kt del Oest
Temperatura 15°C
Humitat 67%
Pressió 1020 hPa
Visibilitat 10 km o més
Cel ennuvolat a una alçada de 2600 ft

METAR: DAOV 131200Z 26021KT 9999 BKN026 15/09 Q1020

Hora: 13:35 (12:35 UTC)

Pronòstic

L'informe es va fer fa 1 hora i 35 minuts, a les 11:00 UTC
Pronòstic vàlid del 13 a les 12 UTC al 13 a les 21 UTC
Vent 16 kt del Oest
Visibilitat 10 km o més
Cel ennuvolat a una alçada de 2600 ft
Evolucionant progressivament
l' 13 a les 19 UTC al 13 a les 21 UTC
Vent 5 kt del Oest
Visibilitat 10 km o més
Núvols disperses a una alçada de 2600 ft

TAF: DAOV 131100Z 1312/1321 27016KT 9999 BKN026 BECMG 1319/1321 28005KT 9999 SCT026

Observacions i pronòstics meteorològics de més de 4000 aeroports (METAR i TAF).

Les estacions disponibles són els punts grocs i vermells al mapa.

Posi el ratolí al punt desitjat per veure el nom de l'estació.

Feu clic per veure les observacions i els pronòstics meteorològics.

Per canviar el mapa: feu clic els botons verds amb una creu de color negre per apropar; al botó verd amb un guió per allunyar la imatge; o en les fletxes verdes per a mapes adjacents.


METAR-TAF: